createdAt,value
2023-04-15T00:01:49.268Z,2.60
2023-04-15T00:04:16.534Z,2.53
2023-04-15T00:06:43.787Z,2.25
2023-04-15T00:09:11.382Z,2.20
2023-04-15T00:11:38.352Z,2.15
2023-04-15T00:14:06.281Z,2.55
2023-04-15T00:16:33.292Z,2.17
2023-04-15T00:19:00.575Z,2.90
2023-04-15T00:21:29.107Z,2.35
2023-04-15T00:23:56.399Z,2.70
2023-04-15T00:26:23.349Z,2.95
2023-04-15T00:28:50.528Z,1.80
2023-04-15T00:31:17.497Z,1.90
2023-04-15T00:33:44.760Z,1.80
2023-04-15T00:36:11.736Z,2.10
2023-04-15T00:38:39.156Z,2.95
2023-04-15T00:41:06.170Z,4.10
2023-04-15T00:43:33.122Z,6.10
2023-04-15T00:46:02.514Z,2.35
2023-04-15T00:48:29.967Z,1.88
2023-04-15T00:50:57.709Z,3.80
2023-04-15T00:53:24.923Z,3.53
2023-04-15T00:55:51.909Z,2.88
2023-04-15T00:58:19.182Z,4.18
2023-04-15T01:00:46.808Z,2.25
2023-04-15T01:03:15.567Z,2.38
2023-04-15T01:05:42.876Z,2.97
2023-04-15T01:08:09.893Z,2.40
2023-04-15T01:10:37.941Z,2.63
2023-04-15T01:13:05.059Z,1.80
2023-04-15T01:15:32.379Z,1.30
2023-04-15T01:17:59.896Z,2.00
2023-04-15T01:20:27.574Z,2.90
2023-04-15T01:22:56.096Z,6.85
2023-04-15T01:25:33.730Z,8.07
2023-04-15T01:28:01.214Z,3.75
2023-04-15T01:30:28.401Z,2.03
2023-04-15T01:32:55.317Z,2.65
2023-04-15T01:35:22.664Z,4.35
2023-04-15T01:37:52.579Z,5.45
2023-04-15T01:40:19.624Z,5.68
2023-04-15T01:42:47.376Z,5.30
2023-04-15T01:45:15.700Z,3.83
2023-04-15T01:47:42.733Z,2.08
2023-04-15T01:50:10.766Z,1.10
2023-04-15T01:52:38.261Z,2.00
2023-04-15T01:55:06.327Z,1.63
2023-04-15T01:57:33.392Z,1.23
2023-04-15T02:00:01.066Z,1.30
2023-04-15T02:02:28.249Z,1.10
2023-04-15T02:04:56.774Z,1.25
2023-04-15T02:07:24.284Z,1.10
2023-04-15T02:09:51.261Z,1.20
2023-04-15T02:12:19.020Z,1.58
2023-04-15T02:14:46.269Z,1.20
2023-04-15T02:17:13.186Z,0.82
2023-04-15T02:19:43.493Z,1.02
2023-04-15T02:22:13.456Z,0.88
2023-04-15T02:24:40.406Z,0.90
2023-04-15T02:27:07.321Z,1.30
2023-04-15T02:29:34.250Z,1.00
2023-04-15T02:32:01.745Z,1.10
2023-04-15T02:34:28.769Z,1.00
2023-04-15T02:36:57.886Z,1.30
2023-04-15T02:39:25.248Z,1.10
2023-04-15T02:41:52.534Z,0.93
2023-04-15T02:44:20.613Z,0.90
2023-04-15T02:46:52.489Z,1.13
2023-04-15T02:49:19.517Z,1.30
2023-04-15T02:51:49.536Z,1.23
2023-04-15T02:54:17.960Z,1.20
2023-04-15T02:56:44.960Z,1.17
2023-04-15T02:59:12.967Z,1.08
2023-04-15T03:01:40.064Z,1.48
2023-04-15T03:04:09.124Z,1.33
2023-04-15T03:06:36.690Z,1.23
2023-04-15T03:09:04.109Z,1.10
2023-04-15T03:11:36.879Z,0.95
2023-04-15T03:14:03.977Z,1.20
2023-04-15T03:16:35.054Z,1.20
2023-04-15T03:19:02.146Z,1.30
2023-04-15T03:21:29.669Z,1.30
2023-04-15T03:23:57.721Z,1.30
2023-04-15T03:26:30.504Z,1.13
2023-04-15T03:29:03.991Z,1.20
2023-04-15T03:31:31.133Z,1.10
2023-04-15T03:33:58.148Z,1.20
2023-04-15T03:36:25.916Z,1.40
2023-04-15T03:38:53.034Z,1.08
2023-04-15T03:41:19.903Z,1.35
2023-04-15T03:43:46.816Z,1.45
2023-04-15T03:46:13.775Z,1.23
2023-04-15T03:48:40.849Z,1.27
2023-04-15T03:51:07.765Z,1.33
2023-04-15T03:53:34.691Z,1.20
2023-04-15T03:56:01.816Z,1.52
2023-04-15T03:58:29.561Z,1.35
2023-04-15T04:00:56.554Z,1.42
2023-04-15T04:03:23.909Z,1.33
2023-04-15T04:05:51.472Z,1.30
2023-04-15T04:08:19.583Z,1.35
2023-04-15T04:10:46.510Z,1.52
2023-04-15T04:13:13.412Z,1.20
2023-04-15T04:15:40.807Z,2.10
2023-04-15T04:18:07.850Z,1.67
2023-04-15T04:20:34.849Z,1.50
2023-04-15T04:23:01.795Z,1.58
2023-04-15T04:25:28.693Z,1.98
2023-04-15T04:27:55.608Z,1.45
2023-04-15T04:30:23.057Z,1.38
2023-04-15T04:32:51.612Z,1.80
2023-04-15T04:35:18.563Z,1.52
2023-04-15T04:37:45.471Z,4.07
2023-04-15T04:40:13.184Z,1.98
2023-04-15T04:42:40.351Z,1.80
2023-04-15T04:45:08.881Z,2.00
2023-04-15T04:47:35.888Z,1.88
2023-04-15T04:50:03.534Z,1.58
2023-04-15T04:52:30.665Z,1.60
2023-04-15T04:54:57.545Z,1.63
2023-04-15T04:57:24.428Z,1.83
2023-04-15T04:59:51.402Z,1.63
2023-04-15T05:02:18.396Z,1.63
2023-04-15T05:04:45.475Z,1.60
2023-04-15T05:07:12.376Z,1.95
2023-04-15T05:09:39.285Z,2.00
2023-04-15T05:12:06.482Z,1.90
2023-04-15T05:14:33.456Z,1.70
2023-04-15T05:17:00.380Z,2.35
2023-04-15T05:19:27.293Z,1.88
2023-04-15T05:21:54.265Z,2.10
2023-04-15T05:24:21.503Z,1.92
2023-04-15T05:26:48.489Z,1.85
2023-04-15T05:29:15.514Z,1.48
2023-04-15T05:31:43.199Z,1.92
2023-04-15T05:34:11.736Z,2.03
2023-04-15T05:36:38.785Z,2.58
2023-04-15T05:39:05.671Z,2.97
2023-04-15T05:41:32.745Z,2.70
2023-04-15T05:43:59.722Z,2.90
2023-04-15T05:46:27.571Z,2.40
2023-04-15T05:48:56.353Z,2.75
2023-04-15T05:51:23.625Z,3.15
2023-04-15T05:53:50.608Z,3.33
2023-04-15T05:56:17.596Z,4.35
2023-04-15T18:25:43.949Z,3.10
2023-04-15T18:28:11.042Z,3.28
2023-04-15T18:30:38.516Z,3.00
2023-04-15T18:33:06.358Z,2.97
2023-04-15T18:35:35.210Z,3.17
2023-04-15T18:38:02.562Z,3.45
2023-04-15T18:40:29.943Z,2.50
2023-04-15T18:42:56.906Z,3.15
2023-04-15T18:45:24.196Z,3.13
2023-04-15T18:47:51.622Z,2.90
2023-04-15T18:50:18.717Z,3.53
2023-04-15T18:52:45.760Z,3.38
2023-04-15T18:55:12.955Z,3.20
2023-04-15T18:57:42.701Z,3.03
2023-04-15T19:00:13.430Z,2.67
2023-04-15T19:02:40.740Z,2.70
2023-04-15T19:05:08.468Z,3.20
2023-04-15T19:07:36.413Z,2.65
2023-04-15T19:10:06.322Z,2.80
2023-04-15T19:12:34.321Z,2.08
2023-04-15T19:15:01.495Z,2.45
2023-04-15T19:17:28.541Z,2.13
2023-04-15T19:19:55.728Z,2.53
2023-04-15T19:22:23.201Z,2.22
2023-04-15T19:24:51.916Z,2.47
2023-04-15T19:27:18.834Z,2.20
2023-04-15T19:29:46.317Z,2.25
2023-04-15T19:32:14.354Z,2.65
2023-04-15T19:34:42.070Z,2.20
2023-04-15T19:37:09.064Z,2.78
2023-04-15T19:39:36.118Z,2.72
2023-04-15T19:42:03.509Z,2.50
2023-04-15T19:44:30.513Z,2.38
2023-04-15T19:46:58.405Z,2.45
2023-04-15T19:49:26.594Z,2.85
2023-04-15T19:51:53.662Z,3.08
2023-04-15T19:54:21.134Z,2.60
2023-04-15T19:56:48.169Z,3.00
2023-04-15T19:59:15.251Z,2.75
2023-04-15T20:01:42.316Z,3.15
2023-04-15T20:04:09.587Z,2.88
2023-04-15T20:06:36.928Z,3.00
2023-04-15T20:09:04.398Z,2.85
2023-04-15T20:12:46.958Z,2.83
2023-04-15T20:14:19.362Z,3.35
2023-04-15T20:16:46.570Z,2.72
2023-04-15T20:19:13.939Z,3.35
2023-04-15T20:21:41.276Z,2.85
2023-04-15T20:24:08.767Z,3.35
2023-04-15T20:26:36.323Z,4.07
2023-04-15T20:29:03.529Z,4.18
2023-04-15T20:31:30.819Z,3.83
2023-04-15T20:33:57.922Z,4.03
2023-04-15T20:36:24.965Z,3.53
2023-04-15T20:38:52.043Z,3.78
2023-04-15T20:41:19.080Z,3.67
2023-04-15T20:43:46.024Z,3.50
2023-04-15T20:46:20.613Z,3.67
2023-04-15T20:48:48.490Z,3.97
2023-04-15T20:51:15.535Z,4.78
2023-04-15T20:53:42.716Z,3.63
2023-04-15T20:56:10.073Z,2.97
2023-04-15T20:58:38.646Z,3.72
2023-04-15T21:01:05.865Z,4.00
2023-04-15T21:03:33.045Z,3.45
2023-04-15T21:06:00.118Z,3.78
2023-04-15T21:08:29.764Z,3.28
2023-04-15T21:10:57.446Z,3.33
2023-04-15T21:13:24.503Z,4.22
2023-04-15T21:15:54.427Z,3.33
2023-04-15T21:18:23.133Z,2.88
2023-04-15T21:21:00.619Z,3.30
2023-04-15T21:23:31.531Z,3.53
2023-04-15T21:25:59.046Z,2.13
2023-04-15T21:28:28.124Z,3.15
2023-04-15T21:30:56.111Z,3.40
2023-04-15T21:33:23.165Z,3.55
2023-04-15T21:35:50.062Z,3.22
2023-04-15T21:38:17.312Z,2.90
2023-04-15T21:40:44.269Z,3.30
2023-04-15T21:43:11.215Z,2.90
2023-04-15T21:45:43.543Z,2.90
2023-04-15T21:48:31.441Z,3.45
2023-04-15T21:50:59.594Z,3.30
2023-04-15T21:53:26.836Z,2.95
2023-04-15T21:55:54.252Z,2.63
2023-04-15T21:58:21.303Z,2.92
2023-04-15T22:00:48.336Z,3.22
2023-04-15T22:03:16.463Z,2.95
2023-04-15T22:05:46.611Z,3.30
2023-04-15T22:08:13.622Z,3.22
2023-04-15T22:10:40.761Z,2.97
2023-04-15T22:13:11.028Z,3.47
2023-04-15T22:15:38.390Z,3.38
2023-04-15T22:18:06.040Z,2.97
2023-04-15T22:20:33.023Z,3.38
2023-04-15T22:23:00.220Z,2.67
2023-04-15T22:25:27.159Z,3.03
2023-04-15T22:27:54.064Z,2.47
2023-04-15T22:30:21.082Z,2.70
2023-04-15T22:32:48.087Z,2.45
2023-04-15T22:35:15.109Z,2.60
2023-04-15T22:37:42.075Z,3.00
2023-04-15T22:40:09.688Z,3.50
2023-04-15T22:42:36.694Z,2.65
2023-04-15T22:45:03.808Z,2.50
2023-04-15T22:47:30.820Z,3.42
2023-04-15T22:49:57.720Z,2.63
2023-04-15T22:52:30.695Z,2.22
2023-04-15T22:54:59.037Z,2.40
2023-04-15T22:57:27.869Z,2.42
2023-04-15T22:59:55.048Z,2.20
2023-04-15T23:02:22.231Z,2.65
2023-04-15T23:04:49.446Z,2.72
2023-04-15T23:07:16.578Z,3.00
2023-04-15T23:09:43.597Z,2.58
2023-04-15T23:12:10.945Z,2.40
2023-04-15T23:14:38.014Z,2.80
2023-04-15T23:17:05.091Z,2.60
2023-04-15T23:19:32.113Z,2.33
2023-04-15T23:21:59.225Z,2.50
2023-04-15T23:24:26.313Z,2.45
2023-04-15T23:26:53.363Z,2.70
2023-04-15T23:29:20.395Z,4.13
2023-04-15T23:31:47.514Z,2.60
2023-04-15T23:34:14.599Z,2.60
2023-04-15T23:36:41.654Z,2.47
2023-04-15T23:39:09.050Z,2.38
2023-04-15T23:41:36.709Z,2.50
2023-04-15T23:44:03.843Z,2.55
2023-04-15T23:46:31.123Z,2.38
2023-04-15T23:48:58.235Z,2.08
2023-04-15T23:51:25.447Z,2.30
2023-04-15T23:53:52.497Z,2.83
2023-04-15T23:56:19.650Z,2.45
2023-04-15T23:58:46.725Z,2.58
